| time (UTC) | temp F | wind direction | speed knots | gust knots | rain 1hr in | rain 24hr in | rain mn in | humidity % | barometer mb |
| 20260504003050 | 60 | 147 | 0.0 | 4.3 | 0.00 | 0.00 | 0.00 | 46 | 1013.9 |
| 20260504001606 | 61 | 247 | 0.9 | 4.3 | 0.00 | 0.00 | 0.00 | 45 | 1013.9 |
| 20260504000051 | 62 | 195 | 0.9 | 4.3 | 0.00 | 0.00 | 0.00 | 44 | 1013.9 |
| 20260503234556 | 62 | 171 | 0.9 | 3.5 | 0.00 | 0.00 | 0.00 | 43 | 1014.0 |
| 20260503233051 | 62 | 295 | 1.7 | 4.3 | 0.00 | 0.00 | 0.00 | 42 | 1013.8 |
| 20260503231555 | 62 | 229 | 2.6 | 7.8 | 0.00 | 0.00 | 0.00 | 41 | 1013.9 |
| 20260503230056 | 63 | 135 | 1.7 | 5.2 | 0.00 | 0.00 | 0.00 | 40 | 1014.2 |
| 20260503224554 | 62 | 186 | 0.9 | 8.7 | 0.00 | 0.00 | 0.00 | 41 | 1014.6 |
| 20260503223050 | 63 | 233 | 1.7 | 7.0 | 0.00 | 0.00 | 0.00 | 39 | 1014.7 |
| 20260503221546 | 63 | 274 | 3.5 | 8.7 | 0.00 | 0.00 | 0.00 | 38 | 1015.0 |
| 20260503220051 | 63 | 193 | 3.5 | 6.1 | 0.00 | 0.00 | 0.00 | 38 | 1014.9 |
| 20260503214557 | 63 | 280 | 2.6 | 6.1 | 0.00 | 0.00 | 0.00 | 37 | 1015.4 |
| 20260503213130 | 63 | 226 | 2.6 | 7.8 | 0.00 | 0.00 | 0.00 | 37 | 1015.7 |
| 20260503211616 | 63 | 271 | 1.7 | 9.6 | 0.00 | 0.00 | 0.00 | 36 | 1015.7 |
| 20260503210050 | 63 | 240 | 2.6 | 5.2 | 0.00 | 0.00 | 0.00 | 36 | 1015.5 |
| 20260503204603 | 63 | 274 | 3.5 | 6.1 | 0.00 | 0.00 | 0.00 | 36 | 1016.1 |
| 20260503203109 | 63 | 169 | 4.3 | 10.4 | 0.00 | 0.00 | 0.00 | 36 | 1016.1 |
| 20260503201548 | 63 | 193 | 1.7 | 8.7 | 0.00 | 0.00 | 0.00 | 35 | 1016.4 |
| 20260503200052 | 63 | 216 | 2.6 | 7.8 | 0.00 | 0.00 | 0.00 | 36 | 1016.6 |
| 20260503194554 | 62 | 238 | 2.6 | 7.8 | 0.00 | 0.00 | 0.00 | 37 | 1017.3 |
| 20260503193056 | 62 | 163 | 3.5 | 7.0 | 0.00 | 0.00 | 0.00 | 37 | 1017.6 |
| 20260503191603 | 61 | 0 | 0.9 | 8.7 | 0.00 | 0.00 | 0.00 | 36 | 1017.9 |
| 20260503190051 | 61 | 190 | 3.5 | 7.0 | 0.00 | 0.00 | 0.00 | 37 | 1018.2 |
| 20260503184606 | 60 | 235 | 4.3 | 7.8 | 0.00 | 0.00 | 0.00 | 35 | 1018.3 |
| 20260503183049 | 60 | 203 | 3.5 | 8.7 | 0.00 | 0.00 | 0.00 | 38 | 1018.7 |
| 20260503181552 | 59 | 215 | 2.6 | 8.7 | 0.00 | 0.00 | 0.00 | 38 | 1018.8 |
| 20260503180056 | 59 | 225 | 3.5 | 7.0 | 0.00 | 0.00 | 0.00 | 39 | 1019.1 |
| 20260503174603 | 59 | 287 | 2.6 | 5.2 | 0.00 | 0.00 | 0.00 | 37 | 1019.3 |
| 20260503173118 | 58 | 153 | 0.9 | 6.1 | 0.00 | 0.00 | 0.00 | 40 | 1019.5 |
| 20260503171551 | 58 | 285 | 1.7 | 10.4 | 0.00 | 0.00 | 0.00 | 40 | 1019.9 |
| 20260503081559 | 37 | 0 | 0.0 | 0.0 | 0.00 | 0.00 | 0.00 | 86 | 1019.9 |
| 20260503071607 | 37 | 0 | 0.0 | 0.0 | 0.00 | 0.00 | 0.00 | 84 | 1019.5 |
| 20260503070113 | 37 | 0 | 0.0 | 0.0 | 0.00 | 0.00 | 0.00 | 84 | 1019.6 |
| 20260503060105 | 39 | 0 | 0.0 | 0.0 | 0.00 | 0.00 | 0.00 | 79 | 1019.8 |
| 20260503054557 | 40 | 0 | 0.0 | 0.0 | 0.00 | 0.00 | 0.00 | 76 | 1019.8 |
| 20260503053050 | 40 | 0 | 0.0 | 0.0 | 0.00 | 0.00 | 0.00 | 75 | 1019.8 |
| 20260503051551 | 41 | 0 | 0.0 | 0.0 | 0.00 | 0.00 | 0.00 | 73 | 1019.7 |
| 20260503050057 | 42 | 0 | 0.0 | 0.0 | 0.00 | 0.00 | 0.00 | 72 | 1019.7 |
| 20260503044548 | 42 | 0 | 0.0 | 0.0 | 0.00 | 0.00 | 0.00 | 69 | 1019.6 |
| 20260503043048 | 43 | 0 | 0.0 | 0.0 | 0.00 | 0.00 | 0.00 | 67 | 1019.6 |
| 20260503041548 | 44 | 0 | 0.0 | 0.0 | 0.00 | 0.00 | 0.00 | 64 | 1019.6 |
| 20260503040055 | 45 | 0 | 0.0 | 0.9 | 0.00 | 0.00 | 0.00 | 62 | 1019.6 |
| 20260503034551 | 46 | 0 | 0.0 | 0.9 | 0.00 | 0.00 | 0.00 | 60 | 1019.6 |
| 20260503033057 | 46 | 0 | 0.0 | 0.0 | 0.00 | 0.00 | 0.00 | 60 | 1019.4 |
| 20260503031549 | 46 | 0 | 0.0 | 0.9 | 0.00 | 0.00 | 0.00 | 60 | 1019.3 |
| 20260503030053 | 47 | 0 | 0.0 | 0.9 | 0.00 | 0.00 | 0.00 | 60 | 1019.3 |
| 20260503024552 | 48 | 0 | 0.0 | 0.9 | 0.00 | 0.00 | 0.00 | 59 | 1019.3 |
| 20260503023048 | 49 | 358 | 0.0 | 0.0 | 0.00 | 0.00 | 0.00 | 58 | 1019.1 |
| 20260503021553 | 49 | 0 | 0.0 | 0.9 | 0.00 | 0.00 | 0.00 | 57 | 1019.0 |
| 20260503020049 | 49 | 0 | 0.0 | 1.7 | 0.00 | 0.00 | 0.00 | 57 | 1018.9 |
| 20260503014602 | 50 | 0 | 0.0 | 0.9 | 0.00 | 0.00 | 0.00 | 57 | 1018.6 |
| 20260503013048 | 49 | 0 | 0.0 | 1.7 | 0.00 | 0.00 | 0.00 | 59 | 1018.4 |
| 20260503011553 | 50 | 0 | 0.0 | 0.0 | 0.00 | 0.00 | 0.00 | 62 | 1018.2 |
| 20260503010050 | 50 | 0 | 0.0 | 0.0 | 0.00 | 0.00 | 0.00 | 58 | 1017.9 |
| 20260503004545 | 51 | 5 | 0.0 | 0.9 | 0.00 | 0.00 | 0.00 | 57 | 1017.7 |